Portada
METAR-TAF:

METAR-TAF

Aeropuertos :

Chitá, Rusia

Aeropuerto de Chitá-Kadala

latitud: 52-05N, longitud: 113-29E, altitud: 685 m

Observación

El informe se hizo hace 15 minutos, a las 15:30 UTC
Viento 4 kt con dirección variable
Temperatura -25°C
Humedad 39%
Presión 1020 hPa
Visibilidad 10 km o más

METAR: UIAA 231530Z VRB02MPS 9999 NSC M25/M35 Q1020 R29/810160 NOSIG RMK QFE706/0942

Hora: 00:45 (15:45 UTC)

Pronóstico

El informe se hizo hace 1 hora y 45 minutos, a las 14:00 UTC
Pronóstico válido del 23 a las 15 UTC al 24 a las 15 UTC
Viento 6 kt del oeste-noroeste
Visibilidad 10 km o más
Nubes dispersas a una altura de 4000 ft, Cumulonimbus.

TAF: UIAA 231400Z 2315/2415 29003MPS 9999 SCT040CB

Observaciones y pronósticos meteorológicos de más de 4000 aeropuertos (mensajes METAR y TAF).

Los puntos amarillos y rojos representan las estaciones disponibles.

Ponga el ratón en el punto deseado para ver el nombre de la estación.

Haga clic para ver las observaciones y los pronósticos meteorológicos.

Para cambiar el mapa : haga clic en los botones verdes con una cruz de color negro para hacer un zoom, en el botón verde con un guión para alejar o en las flechas verdes para mapas adyacentes.


METAR-TAF: